sensor_id;sensor_type;location;lat;lon;timestamp;pressure;altitude;pressure_sealevel;temperature;humidity
82672;BME280;72378;52.468;13.432;2023-12-20T00:01:35;100497.03;;;9.37;78.31
82672;BME280;72378;52.468;13.432;2023-12-20T00:04:02;100491.72;;;8.99;78.68
82672;BME280;72378;52.468;13.432;2023-12-20T00:06:29;100494.78;;;9.26;77.81
82672;BME280;72378;52.468;13.432;2023-12-20T00:08:55;100501.41;;;8.85;79.19
82672;BME280;72378;52.468;13.432;2023-12-20T00:11:23;100494.41;;;9.07;78.21
82672;BME280;72378;52.468;13.432;2023-12-20T00:13:50;100490.84;;;9.06;78.69
82672;BME280;72378;52.468;13.432;2023-12-20T00:16:17;100498.63;;;9.32;77.66
82672;BME280;72378;52.468;13.432;2023-12-20T00:18:43;100487.53;;;9.27;77.65
82672;BME280;72378;52.468;13.432;2023-12-20T00:21:09;100474.50;;;9.53;76.48
82672;BME280;72378;52.468;13.432;2023-12-20T00:23:36;100476.22;;;9.01;79.16
82672;BME280;72378;52.468;13.432;2023-12-20T00:26:02;100476.03;;;9.02;78.67
82672;BME280;72378;52.468;13.432;2023-12-20T00:28:28;100481.34;;;9.18;78.36
82672;BME280;72378;52.468;13.432;2023-12-20T00:30:56;100478.34;;;9.36;77.40
82672;BME280;72378;52.468;13.432;2023-12-20T00:33:22;100473.63;;;9.07;78.42
82672;BME280;72378;52.468;13.432;2023-12-20T00:35:49;100477.38;;;9.06;78.82
82672;BME280;72378;52.468;13.432;2023-12-20T00:38:15;100471.34;;;9.27;78.12
82672;BME280;72378;52.468;13.432;2023-12-20T00:40:41;100471.72;;;9.16;77.94
82672;BME280;72378;52.468;13.432;2023-12-20T00:43:08;100466.03;;;8.80;79.58
82672;BME280;72378;52.468;13.432;2023-12-20T00:45:34;100470.00;;;9.23;78.88
82672;BME280;72378;52.468;13.432;2023-12-20T00:48:02;100473.91;;;9.43;77.33
82672;BME280;72378;52.468;13.432;2023-12-20T00:50:28;100462.94;;;9.44;77.36
82672;BME280;72378;52.468;13.432;2023-12-20T00:52:55;100474.44;;;8.85;79.45
82672;BME280;72378;52.468;13.432;2023-12-20T00:55:21;100462.59;;;8.94;79.07
82672;BME280;72378;52.468;13.432;2023-12-20T00:57:47;100469.03;;;8.93;79.50
82672;BME280;72378;52.468;13.432;2023-12-20T01:00:14;100474.66;;;9.06;78.65
82672;BME280;72378;52.468;13.432;2023-12-20T01:02:40;100468.00;;;8.94;78.69
82672;BME280;72378;52.468;13.432;2023-12-20T01:05:08;100468.84;;;9.17;78.56
82672;BME280;72378;52.468;13.432;2023-12-20T01:07:34;100474.97;;;9.11;78.46
82672;BME280;72378;52.468;13.432;2023-12-20T01:10:01;100475.16;;;9.10;78.68
82672;BME280;72378;52.468;13.432;2023-12-20T01:12:27;100478.47;;;9.20;78.56
82672;BME280;72378;52.468;13.432;2023-12-20T01:14:53;100475.72;;;8.97;79.09
82672;BME280;72378;52.468;13.432;2023-12-20T01:17:19;100469.97;;;9.00;79.23
82672;BME280;72378;52.468;13.432;2023-12-20T01:19:46;100472.59;;;9.16;78.53
82672;BME280;72378;52.468;13.432;2023-12-20T01:22:13;100468.97;;;9.01;79.22
82672;BME280;72378;52.468;13.432;2023-12-20T01:24:40;100472.88;;;9.21;78.81
82672;BME280;72378;52.468;13.432;2023-12-20T01:27:06;100470.94;;;9.07;79.50
82672;BME280;72378;52.468;13.432;2023-12-20T01:29:32;100473.50;;;9.01;79.89
82672;BME280;72378;52.468;13.432;2023-12-20T01:31:58;100470.25;;;9.13;78.82
82672;BME280;72378;52.468;13.432;2023-12-20T01:34:25;100468.56;;;8.82;79.79
82672;BME280;72378;52.468;13.432;2023-12-20T01:36:51;100469.88;;;8.86;80.19
82672;BME280;72378;52.468;13.432;2023-12-20T01:39:19;100461.00;;;8.77;80.75
82672;BME280;72378;52.468;13.432;2023-12-20T01:41:45;100468.59;;;9.04;79.65
82672;BME280;72378;52.468;13.432;2023-12-20T01:44:12;100467.44;;;8.99;80.19
82672;BME280;72378;52.468;13.432;2023-12-20T01:46:38;100468.03;;;9.39;79.01
82672;BME280;72378;52.468;13.432;2023-12-20T01:49:04;100443.22;;;9.21;78.34
82672;BME280;72378;52.468;13.432;2023-12-20T01:51:31;100463.56;;;9.01;79.56
82672;BME280;72378;52.468;13.432;2023-12-20T01:53:59;100461.50;;;9.11;79.79
82672;BME280;72378;52.468;13.432;2023-12-20T01:56:28;100454.19;;;8.89;79.92
82672;BME280;72378;52.468;13.432;2023-12-20T01:58:55;100455.25;;;9.11;79.51
82672;BME280;72378;52.468;13.432;2023-12-20T02:01:22;100459.94;;;8.86;80.26
82672;BME280;72378;52.468;13.432;2023-12-20T02:03:49;100458.84;;;9.03;79.80
82672;BME280;72378;52.468;13.432;2023-12-20T02:06:18;100452.44;;;9.49;78.63
82672;BME280;72378;52.468;13.432;2023-12-20T02:08:44;100447.28;;;9.62;77.00
82672;BME280;72378;52.468;13.432;2023-12-20T02:11:11;100445.78;;;9.37;78.93
82672;BME280;72378;52.468;13.432;2023-12-20T02:13:38;100442.47;;;9.72;77.28
82672;BME280;72378;52.468;13.432;2023-12-20T02:16:05;100438.66;;;10.48;74.67
82672;BME280;72378;52.468;13.432;2023-12-20T02:18:32;100440.34;;;10.20;75.06
82672;BME280;72378;52.468;13.432;2023-12-20T02:20:59;100440.72;;;9.94;76.21
82672;BME280;72378;52.468;13.432;2023-12-20T02:23:26;100452.25;;;9.06;78.83
82672;BME280;72378;52.468;13.432;2023-12-20T02:25:53;100455.00;;;10.03;77.13
82672;BME280;72378;52.468;13.432;2023-12-20T02:28:19;100441.97;;;10.06;76.56
82672;BME280;72378;52.468;13.432;2023-12-20T02:30:46;100442.47;;;9.72;76.99
82672;BME280;72378;52.468;13.432;2023-12-20T02:33:15;100442.63;;;9.71;77.41
82672;BME280;72378;52.468;13.432;2023-12-20T02:35:41;100440.69;;;9.79;76.99
82672;BME280;72378;52.468;13.432;2023-12-20T02:38:07;100445.28;;;9.93;77.24
82672;BME280;72378;52.468;13.432;2023-12-20T02:40:35;100446.03;;;9.87;76.75
82672;BME280;72378;52.468;13.432;2023-12-20T02:43:01;100443.63;;;9.55;77.43
82672;BME280;72378;52.468;13.432;2023-12-20T02:45:28;100434.47;;;9.42;78.46
82672;BME280;72378;52.468;13.432;2023-12-20T02:47:54;100431.28;;;9.38;78.12
82672;BME280;72378;52.468;13.432;2023-12-20T02:50:20;100431.41;;;9.00;79.21
82672;BME280;72378;52.468;13.432;2023-12-20T02:52:47;100438.41;;;9.54;77.35
82672;BME280;72378;52.468;13.432;2023-12-20T02:55:13;100439.31;;;9.46;76.79
82672;BME280;72378;52.468;13.432;2023-12-20T02:57:41;100440.84;;;10.01;75.53
82672;BME280;72378;52.468;13.432;2023-12-20T03:00:08;100441.50;;;10.03;75.33
82672;BME280;72378;52.468;13.432;2023-12-20T03:02:34;100437.47;;;9.98;75.28
82672;BME280;72378;52.468;13.432;2023-12-20T03:05:01;100433.13;;;9.60;76.68
82672;BME280;72378;52.468;13.432;2023-12-20T03:07:27;100439.19;;;10.29;73.70
82672;BME280;72378;52.468;13.432;2023-12-20T03:09:53;100448.78;;;10.17;73.33
82672;BME280;72378;52.468;13.432;2023-12-20T03:12:20;100449.44;;;9.81;75.94
82672;BME280;72378;52.468;13.432;2023-12-20T03:14:48;100448.66;;;9.36;76.49
82672;BME280;72378;52.468;13.432;2023-12-20T03:17:15;100453.56;;;9.10;76.99
82672;BME280;72378;52.468;13.432;2023-12-20T03:19:41;100445.25;;;9.19;77.25
82672;BME280;72378;52.468;13.432;2023-12-20T03:22:08;100456.28;;;9.32;76.38
82672;BME280;72378;52.468;13.432;2023-12-20T03:24:34;100460.53;;;9.72;74.79
82672;BME280;72378;52.468;13.432;2023-12-20T03:27:00;100449.69;;;9.35;76.53
82672;BME280;72378;52.468;13.432;2023-12-20T03:29:27;100458.59;;;9.80;74.55
82672;BME280;72378;52.468;13.432;2023-12-20T03:31:54;100455.91;;;9.58;74.81
82672;BME280;72378;52.468;13.432;2023-12-20T03:34:20;100456.75;;;9.58;74.66
82672;BME280;72378;52.468;13.432;2023-12-20T03:36:47;100453.75;;;9.53;74.32
82672;BME280;72378;52.468;13.432;2023-12-20T03:39:13;100453.84;;;9.45;74.01
82672;BME280;72378;52.468;13.432;2023-12-20T03:41:39;100460.22;;;9.44;74.71
82672;BME280;72378;52.468;13.432;2023-12-20T03:44:06;100463.16;;;9.57;74.25
82672;BME280;72378;52.468;13.432;2023-12-20T03:46:32;100457.44;;;9.07;75.92
82672;BME280;72378;52.468;13.432;2023-12-20T03:49:00;100454.72;;;9.15;75.40
82672;BME280;72378;52.468;13.432;2023-12-20T03:51:26;100451.44;;;9.87;73.11
82672;BME280;72378;52.468;13.432;2023-12-20T03:53:52;100449.63;;;10.17;71.33
82672;BME280;72378;52.468;13.432;2023-12-20T03:56:18;100446.81;;;9.59;73.39
82672;BME280;72378;52.468;13.432;2023-12-20T03:58:45;100450.50;;;9.80;73.50
82672;BME280;72378;52.468;13.432;2023-12-20T04:01:11;100439.41;;;9.75;72.93
82672;BME280;72378;52.468;13.432;2023-12-20T04:03:38;100433.47;;;9.57;73.42
82672;BME280;72378;52.468;13.432;2023-12-20T04:06:06;100416.06;;;9.60;73.31
82672;BME280;72378;52.468;13.432;2023-12-20T04:08:33;100430.91;;;9.41;73.81
82672;BME280;72378;52.468;13.432;2023-12-20T04:10:59;100434.06;;;9.67;73.50
82672;BME280;72378;52.468;13.432;2023-12-20T04:13:25;100439.81;;;9.64;73.30
82672;BME280;72378;52.468;13.432;2023-12-20T04:15:51;100427.06;;;9.58;73.82
82672;BME280;72378;52.468;13.432;2023-12-20T04:18:18;100413.38;;;10.41;71.02
82672;BME280;72378;52.468;13.432;2023-12-20T04:20:44;100414.44;;;9.73;73.26
82672;BME280;72378;52.468;13.432;2023-12-20T04:23:12;100424.47;;;9.42;74.10
82672;BME280;72378;52.468;13.432;2023-12-20T04:25:38;100431.00;;;9.70;71.93
82672;BME280;72378;52.468;13.432;2023-12-20T04:28:05;100408.91;;;9.07;74.19
82672;BME280;72378;52.468;13.432;2023-12-20T04:30:31;100410.47;;;9.47;73.46
82672;BME280;72378;52.468;13.432;2023-12-20T04:32:57;100420.44;;;9.61;72.79
82672;BME280;72378;52.468;13.432;2023-12-20T04:35:23;100412.88;;;9.19;73.08
82672;BME280;72378;52.468;13.432;2023-12-20T04:37:50;100415.19;;;9.82;70.86
82672;BME280;72378;52.468;13.432;2023-12-20T04:40:17;100413.91;;;9.18;73.21
82672;BME280;72378;52.468;13.432;2023-12-20T04:42:44;100414.66;;;9.49;72.48
82672;BME280;72378;52.468;13.432;2023-12-20T04:45:10;100432.31;;;8.84;73.93
82672;BME280;72378;52.468;13.432;2023-12-20T04:47:38;100430.53;;;8.99;73.37
82672;BME280;72378;52.468;13.432;2023-12-20T04:50:05;100426.84;;;9.23;72.90
82672;BME280;72378;52.468;13.432;2023-12-20T04:52:32;100424.88;;;9.17;73.36
82672;BME280;72378;52.468;13.432;2023-12-20T04:54:58;100425.50;;;8.96;73.68
82672;BME280;72378;52.468;13.432;2023-12-20T04:57:26;100419.56;;;9.01;73.93
82672;BME280;72378;52.468;13.432;2023-12-20T04:59:52;100422.56;;;8.83;74.70
82672;BME280;72378;52.468;13.432;2023-12-20T05:02:18;100411.72;;;8.60;75.22
82672;BME280;72378;52.468;13.432;2023-12-20T05:04:45;100418.66;;;8.55;75.47
82672;BME280;72378;52.468;13.432;2023-12-20T05:07:11;100418.88;;;8.45;75.91
82672;BME280;72378;52.468;13.432;2023-12-20T05:09:37;100424.81;;;8.41;75.46
82672;BME280;72378;52.468;13.432;2023-12-20T05:12:04;100429.84;;;8.75;73.90
82672;BME280;72378;52.468;13.432;2023-12-20T05:14:32;100436.28;;;8.27;74.44
82672;BME280;72378;52.468;13.432;2023-12-20T05:16:58;100430.81;;;8.43;75.03
82672;BME280;72378;52.468;13.432;2023-12-20T05:19:24;100430.34;;;8.78;73.12
82672;BME280;72378;52.468;13.432;2023-12-20T05:21:51;100431.38;;;8.38;74.39
82672;BME280;72378;52.468;13.432;2023-12-20T05:24:17;100431.63;;;8.51;74.14
82672;BME280;72378;52.468;13.432;2023-12-20T05:26:44;100437.06;;;8.43;74.12
82672;BME280;72378;52.468;13.432;2023-12-20T05:29:10;100434.03;;;8.77;73.27
82672;BME280;72378;52.468;13.432;2023-12-20T05:31:38;100428.38;;;8.64;73.93
82672;BME280;72378;52.468;13.432;2023-12-20T05:34:04;100430.19;;;9.02;72.25
82672;BME280;72378;52.468;13.432;2023-12-20T05:36:30;100432.63;;;8.04;74.60
82672;BME280;72378;52.468;13.432;2023-12-20T05:38:57;100430.84;;;8.73;72.21
82672;BME280;72378;52.468;13.432;2023-12-20T05:41:23;100428.66;;;8.77;71.78
82672;BME280;72378;52.468;13.432;2023-12-20T05:43:49;100423.28;;;9.22;70.66
82672;BME280;72378;52.468;13.432;2023-12-20T05:46:15;100424.84;;;8.63;71.98
82672;BME280;72378;52.468;13.432;2023-12-20T05:48:43;100428.66;;;8.77;71.68
82672;BME280;72378;52.468;13.432;2023-12-20T05:51:11;100419.94;;;8.67;71.84
82672;BME280;72378;52.468;13.432;2023-12-20T05:53:37;100417.84;;;7.92;74.18
82672;BME280;72378;52.468;13.432;2023-12-20T05:56:04;100418.41;;;7.47;75.75
82672;BME280;72378;52.468;13.432;2023-12-20T05:58:31;100417.56;;;7.46;75.71
82672;BME280;72378;52.468;13.432;2023-12-20T06:00:58;100419.09;;;7.41;75.98
82672;BME280;72378;52.468;13.432;2023-12-20T06:03:24;100417.72;;;7.69;75.28
82672;BME280;72378;52.468;13.432;2023-12-20T06:05:52;100419.53;;;7.85;74.57
82672;BME280;72378;52.468;13.432;2023-12-20T06:08:18;100419.09;;;8.20;73.47
82672;BME280;72378;52.468;13.432;2023-12-20T06:10:44;100412.88;;;7.57;75.03
82672;BME280;72378;52.468;13.432;2023-12-20T06:13:10;100396.53;;;7.58;75.15
82672;BME280;72378;52.468;13.432;2023-12-20T06:15:38;100399.25;;;7.50;74.92
82672;BME280;72378;52.468;13.432;2023-12-20T06:18:05;100400.22;;;7.73;74.32
82672;BME280;72378;52.468;13.432;2023-12-20T06:20:31;100399.06;;;7.52;75.14
82672;BME280;72378;52.468;13.432;2023-12-20T06:22:59;100375.53;;;7.37;74.79
82672;BME280;72378;52.468;13.432;2023-12-20T06:25:25;100390.31;;;7.58;74.68
82672;BME280;72378;52.468;13.432;2023-12-20T06:27:52;100399.50;;;7.87;73.43
82672;BME280;72378;52.468;13.432;2023-12-20T06:30:18;100403.06;;;7.64;74.01
82672;BME280;72378;52.468;13.432;2023-12-20T06:32:44;100412.53;;;7.52;74.63
82672;BME280;72378;52.468;13.432;2023-12-20T06:35:12;100410.00;;;7.50;74.74
82672;BME280;72378;52.468;13.432;2023-12-20T06:37:38;100402.94;;;7.49;74.95
82672;BME280;72378;52.468;13.432;2023-12-20T06:40:09;100408.16;;;7.34;75.37
82672;BME280;72378;52.468;13.432;2023-12-20T06:42:35;100412.84;;;7.48;75.12
82672;BME280;72378;52.468;13.432;2023-12-20T06:45:03;100401.56;;;7.45;74.87
82672;BME280;72378;52.468;13.432;2023-12-20T06:47:29;100411.50;;;7.61;74.62
82672;BME280;72378;52.468;13.432;2023-12-20T06:49:56;100410.16;;;7.65;74.07
82672;BME280;72378;52.468;13.432;2023-12-20T06:52:22;100401.41;;;7.63;74.63
82672;BME280;72378;52.468;13.432;2023-12-20T06:54:48;100403.44;;;7.53;74.83
82672;BME280;72378;52.468;13.432;2023-12-20T06:57:16;100391.94;;;7.83;74.18
82672;BME280;72378;52.468;13.432;2023-12-20T06:59:43;100400.75;;;7.44;76.03
82672;BME280;72378;52.468;13.432;2023-12-20T07:02:09;100392.16;;;7.73;74.53
82672;BME280;72378;52.468;13.432;2023-12-20T07:04:39;100401.44;;;7.14;76.28
82672;BME280;72378;52.468;13.432;2023-12-20T07:07:05;100403.06;;;7.64;74.92
82672;BME280;72378;52.468;13.432;2023-12-20T07:09:32;100397.03;;;7.70;74.98
82672;BME280;72378;52.468;13.432;2023-12-20T07:11:58;100396.66;;;7.89;73.96
82672;BME280;72378;52.468;13.432;2023-12-20T07:14:26;100401.44;;;7.55;74.80
82672;BME280;72378;52.468;13.432;2023-12-20T07:16:52;100393.16;;;7.64;74.49
82672;BME280;72378;52.468;13.432;2023-12-20T07:19:19;100391.50;;;7.63;74.58
82672;BME280;72378;52.468;13.432;2023-12-20T07:21:45;100388.94;;;7.78;73.92
82672;BME280;72378;52.468;13.432;2023-12-20T07:24:11;100398.41;;;7.33;74.92
82672;BME280;72378;52.468;13.432;2023-12-20T07:26:38;100387.63;;;7.58;74.88
82672;BME280;72378;52.468;13.432;2023-12-20T07:29:05;100384.03;;;7.81;73.79
82672;BME280;72378;52.468;13.432;2023-12-20T07:31:33;100396.50;;;7.74;73.94
82672;BME280;72378;52.468;13.432;2023-12-20T07:33:59;100383.72;;;7.76;74.13
82672;BME280;72378;52.468;13.432;2023-12-20T07:36:26;100387.09;;;7.62;74.80
82672;BME280;72378;52.468;13.432;2023-12-20T07:38:52;100383.09;;;7.50;74.79
82672;BME280;72378;52.468;13.432;2023-12-20T07:41:19;100393.69;;;7.35;74.94
82672;BME280;72378;52.468;13.432;2023-12-20T07:43:47;100386.94;;;7.56;74.72
82672;BME280;72378;52.468;13.432;2023-12-20T07:46:13;100382.56;;;7.79;73.45
82672;BME280;72378;52.468;13.432;2023-12-20T07:48:41;100376.84;;;7.66;73.76
82672;BME280;72378;52.468;13.432;2023-12-20T07:51:07;100382.91;;;7.68;73.43
82672;BME280;72378;52.468;13.432;2023-12-20T07:53:34;100373.16;;;7.59;73.42
82672;BME280;72378;52.468;13.432;2023-12-20T07:56:01;100381.44;;;7.33;74.44
82672;BME280;72378;52.468;13.432;2023-12-20T07:58:27;100379.56;;;7.58;73.86
82672;BME280;72378;52.468;13.432;2023-12-20T08:00:55;100378.22;;;7.37;73.65
82672;BME280;72378;52.468;13.432;2023-12-20T08:03:21;100380.22;;;7.60;72.80
82672;BME280;72378;52.468;13.432;2023-12-20T08:05:49;100377.16;;;7.71;72.71
82672;BME280;72378;52.468;13.432;2023-12-20T08:08:15;100381.84;;;7.85;72.18
82672;BME280;72378;52.468;13.432;2023-12-20T08:10:41;100385.25;;;7.79;72.15
82672;BME280;72378;52.468;13.432;2023-12-20T08:13:08;100386.25;;;7.78;72.26
82672;BME280;72378;52.468;13.432;2023-12-20T08:15:34;100381.91;;;7.53;73.22
82672;BME280;72378;52.468;13.432;2023-12-20T08:18:00;100391.28;;;7.81;72.51
82672;BME280;72378;52.468;13.432;2023-12-20T08:20:26;100383.06;;;7.74;73.56
82672;BME280;72378;52.468;13.432;2023-12-20T08:22:54;100370.94;;;7.78;72.48
82672;BME280;72378;52.468;13.432;2023-12-20T08:25:20;100380.56;;;7.57;73.02
82672;BME280;72378;52.468;13.432;2023-12-20T08:27:47;100378.47;;;7.99;71.90
82672;BME280;72378;52.468;13.432;2023-12-20T08:30:13;100375.97;;;7.81;72.42
82672;BME280;72378;52.468;13.432;2023-12-20T08:32:41;100380.34;;;7.82;72.79
82672;BME280;72378;52.468;13.432;2023-12-20T08:35:07;100377.22;;;7.38;74.00
82672;BME280;72378;52.468;13.432;2023-12-20T08:37:34;100374.34;;;7.56;73.40
82672;BME280;72378;52.468;13.432;2023-12-20T08:40:02;100373.41;;;7.96;72.48
82672;BME280;72378;52.468;13.432;2023-12-20T08:42:28;100367.88;;;7.89;72.84
82672;BME280;72378;52.468;13.432;2023-12-20T08:44:56;100367.25;;;8.18;71.83
82672;BME280;72378;52.468;13.432;2023-12-20T08:47:23;100376.78;;;7.90;72.47
82672;BME280;72378;52.468;13.432;2023-12-20T08:49:49;100354.72;;;7.94;71.75
82672;BME280;72378;52.468;13.432;2023-12-20T08:52:16;100361.28;;;8.00;71.83
82672;BME280;72378;52.468;13.432;2023-12-20T08:54:42;100362.66;;;7.88;72.16
82672;BME280;72378;52.468;13.432;2023-12-20T08:57:10;100358.91;;;8.05;71.36
82672;BME280;72378;52.468;13.432;2023-12-20T08:59:36;100352.75;;;8.35;71.18
82672;BME280;72378;52.468;13.432;2023-12-20T09:02:03;100331.56;;;7.85;72.59
82672;BME280;72378;52.468;13.432;2023-12-20T09:04:29;100346.97;;;7.99;73.04
82672;BME280;72378;52.468;13.432;2023-12-20T09:06:55;100338.16;;;7.75;72.77
82672;BME280;72378;52.468;13.432;2023-12-20T09:09:21;100352.91;;;7.87;72.71
82672;BME280;72378;52.468;13.432;2023-12-20T09:11:48;100346.72;;;8.25;71.24
82672;BME280;72378;52.468;13.432;2023-12-20T09:14:17;100361.91;;;8.26;71.72
82672;BME280;72378;52.468;13.432;2023-12-20T09:16:44;100365.16;;;8.44;71.65
82672;BME280;72378;52.468;13.432;2023-12-20T09:19:10;100374.47;;;8.33;70.97
82672;BME280;72378;52.468;13.432;2023-12-20T09:21:36;100365.34;;;8.42;70.89
82672;BME280;72378;52.468;13.432;2023-12-20T09:24:03;100352.84;;;8.03;71.71
82672;BME280;72378;52.468;13.432;2023-12-20T09:26:29;100355.31;;;8.20;71.15
82672;BME280;72378;52.468;13.432;2023-12-20T09:28:55;100351.59;;;8.21;71.52
82672;BME280;72378;52.468;13.432;2023-12-20T09:31:23;100358.13;;;8.35;70.94
82672;BME280;72378;52.468;13.432;2023-12-20T09:33:49;100353.72;;;7.95;72.42
82672;BME280;72378;52.468;13.432;2023-12-20T09:36:15;100349.16;;;8.04;71.81
82672;BME280;72378;52.468;13.432;2023-12-20T09:38:42;100339.34;;;8.11;71.83
82672;BME280;72378;52.468;13.432;2023-12-20T09:41:08;100350.47;;;8.46;71.27
82672;BME280;72378;52.468;13.432;2023-12-20T09:43:35;100347.22;;;8.28;70.98
82672;BME280;72378;52.468;13.432;2023-12-20T09:46:05;100347.59;;;8.17;70.24
82672;BME280;72378;52.468;13.432;2023-12-20T09:48:33;100346.56;;;8.18;70.85
82672;BME280;72378;52.468;13.432;2023-12-20T09:51:00;100351.53;;;7.99;71.13
82672;BME280;72378;52.468;13.432;2023-12-20T09:53:28;100348.72;;;8.23;70.53
82672;BME280;72378;52.468;13.432;2023-12-20T09:55:58;100336.03;;;8.39;70.61
82672;BME280;72378;52.468;13.432;2023-12-20T09:58:25;100337.72;;;8.71;69.29
82672;BME280;72378;52.468;13.432;2023-12-20T10:00:52;100341.31;;;8.86;68.86
82672;BME280;72378;52.468;13.432;2023-12-20T10:03:24;100340.31;;;8.56;69.09
82672;BME280;72378;52.468;13.432;2023-12-20T10:05:54;100329.81;;;8.69;69.64
82672;BME280;72378;52.468;13.432;2023-12-20T10:08:22;100323.72;;;8.45;70.21
82672;BME280;72378;52.468;13.432;2023-12-20T10:10:50;100315.78;;;8.74;69.11
82672;BME280;72378;52.468;13.432;2023-12-20T10:13:16;100301.09;;;8.54;69.13
82672;BME280;72378;52.468;13.432;2023-12-20T10:15:43;100307.44;;;8.38;69.20
82672;BME280;72378;52.468;13.432;2023-12-20T10:18:09;100306.94;;;8.35;69.67
82672;BME280;72378;52.468;13.432;2023-12-20T10:20:36;100294.00;;;8.30;69.79
82672;BME280;72378;52.468;13.432;2023-12-20T10:23:03;100300.06;;;8.32;69.18
82672;BME280;72378;52.468;13.432;2023-12-20T10:25:30;100287.06;;;8.05;69.60
82672;BME280;72378;52.468;13.432;2023-12-20T10:28:10;100287.38;;;8.41;69.43
82672;BME280;72378;52.468;13.432;2023-12-20T10:30:37;100283.28;;;8.90;67.95
82672;BME280;72378;52.468;13.432;2023-12-20T10:33:05;100286.59;;;8.55;69.00
82672;BME280;72378;52.468;13.432;2023-12-20T10:35:32;100285.09;;;8.75;67.77
82672;BME280;72378;52.468;13.432;2023-12-20T10:38:04;100272.22;;;8.40;68.41
82672;BME280;72378;52.468;13.432;2023-12-20T10:40:32;100270.13;;;8.50;67.59
82672;BME280;72378;52.468;13.432;2023-12-20T10:43:02;100271.53;;;8.46;68.13
82672;BME280;72378;52.468;13.432;2023-12-20T10:45:28;100252.72;;;8.83;67.05
82672;BME280;72378;52.468;13.432;2023-12-20T10:47:56;100242.75;;;8.84;66.81
82672;BME280;72378;52.468;13.432;2023-12-20T10:50:24;100236.72;;;9.33;65.61
82672;BME280;72378;52.468;13.432;2023-12-20T10:52:51;100242.63;;;8.77;67.02
82672;BME280;72378;52.468;13.432;2023-12-20T10:55:22;100233.34;;;9.31;65.49
82672;BME280;72378;52.468;13.432;2023-12-20T10:57:49;100231.00;;;9.14;65.93
82672;BME280;72378;52.468;13.432;2023-12-20T11:00:17;100232.44;;;8.87;66.63
82672;BME280;72378;52.468;13.432;2023-12-20T11:02:44;100223.59;;;8.79;66.78
82672;BME280;72378;52.468;13.432;2023-12-20T11:05:19;100224.13;;;8.51;67.66
82672;BME280;72378;52.468;13.432;2023-12-20T11:07:51;100216.41;;;8.71;66.86
82672;BME280;72378;52.468;13.432;2023-12-20T11:10:26;100210.78;;;8.95;66.67
82672;BME280;72378;52.468;13.432;2023-12-20T11:12:56;100221.47;;;8.89;66.79
82672;BME280;72378;52.468;13.432;2023-12-20T11:15:25;100206.81;;;9.06;66.79
82672;BME280;72378;52.468;13.432;2023-12-20T11:17:54;100205.25;;;9.11;67.50
82672;BME280;72378;52.468;13.432;2023-12-20T11:20:22;100204.88;;;9.14;67.32
82672;BME280;72378;52.468;13.432;2023-12-20T11:22:53;100197.25;;;9.03;67.94
82672;BME280;72378;52.468;13.432;2023-12-20T11:25:19;100193.22;;;8.99;67.56
82672;BME280;72378;52.468;13.432;2023-12-20T11:28:07;100184.59;;;9.18;67.09
82672;BME280;72378;52.468;13.432;2023-12-20T11:30:40;100182.25;;;9.01;67.64
82672;BME280;72378;52.468;13.432;2023-12-20T11:33:07;100177.78;;;8.93;67.73
82672;BME280;72378;52.468;13.432;2023-12-20T11:35:33;100186.19;;;8.61;68.94
82672;BME280;72378;52.468;13.432;2023-12-20T11:38:01;100171.31;;;9.17;67.51
82672;BME280;72378;52.468;13.432;2023-12-20T11:40:33;100152.09;;;8.68;69.12
82672;BME280;72378;52.468;13.432;2023-12-20T11:43:01;100152.44;;;8.65;69.28
82672;BME280;72378;52.468;13.432;2023-12-20T11:45:27;100144.00;;;8.68;68.87
82672;BME280;72378;52.468;13.432;2023-12-20T11:47:54;100147.00;;;8.73;68.36
82672;BME280;72378;52.468;13.432;2023-12-20T11:50:21;100150.59;;;8.65;68.32
82672;BME280;72378;52.468;13.432;2023-12-20T11:52:48;100147.13;;;8.57;69.11
82672;BME280;72378;52.468;13.432;2023-12-20T11:55:15;100135.28;;;8.66;69.29
82672;BME280;72378;52.468;13.432;2023-12-20T11:57:41;100126.91;;;8.61;69.30
82672;BME280;72378;52.468;13.432;2023-12-20T12:00:11;100130.69;;;8.52;69.34
82672;BME280;72378;52.468;13.432;2023-12-20T12:02:37;100115.56;;;8.80;68.42
82672;BME280;72378;52.468;13.432;2023-12-20T12:05:04;100097.22;;;8.46;69.72
82672;BME280;72378;52.468;13.432;2023-12-20T12:07:31;100111.66;;;8.68;69.32
82672;BME280;72378;52.468;13.432;2023-12-20T12:09:57;100101.81;;;9.04;68.08
82672;BME280;72378;52.468;13.432;2023-12-20T12:12:24;100088.06;;;8.85;68.39
82672;BME280;72378;52.468;13.432;2023-12-20T12:14:52;100084.72;;;8.68;69.06
82672;BME280;72378;52.468;13.432;2023-12-20T12:17:20;100087.41;;;8.83;67.90
82672;BME280;72378;52.468;13.432;2023-12-20T12:19:46;100073.16;;;8.89;67.71
82672;BME280;72378;52.468;13.432;2023-12-20T12:22:14;100071.59;;;8.94;67.17
82672;BME280;72378;52.468;13.432;2023-12-20T12:24:42;100060.16;;;8.92;66.81
82672;BME280;72378;52.468;13.432;2023-12-20T12:27:09;100063.22;;;8.89;66.81
82672;BME280;72378;52.468;13.432;2023-12-20T12:29:36;100060.53;;;8.60;68.19
82672;BME280;72378;52.468;13.432;2023-12-20T12:32:04;100062.78;;;8.71;67.88
82672;BME280;72378;52.468;13.432;2023-12-20T12:34:33;100045.09;;;8.54;68.96
82672;BME280;72378;52.468;13.432;2023-12-20T12:36:59;100051.91;;;8.64;69.84
82672;BME280;72378;52.468;13.432;2023-12-20T12:39:25;100033.19;;;8.63;69.94
82672;BME280;72378;52.468;13.432;2023-12-20T12:41:52;100042.22;;;8.41;70.70
82672;BME280;72378;52.468;13.432;2023-12-20T12:44:18;100035.59;;;8.29;71.35
82672;BME280;72378;52.468;13.432;2023-12-20T12:46:45;100032.56;;;8.61;71.08
82672;BME280;72378;52.468;13.432;2023-12-20T12:49:12;100023.56;;;8.17;72.68